Terminal Aerodrome Forecast
Issued by NWS

Home | Current Version | Previous Version | Text Only | Print | Product List | Glossary On
Versions: 1 2 3 4 5 6 7 8 9 10 11 12 13 14 15
000
FTUS43 KLSX 031100
TAFSUS
TAF
KSUS 031120Z 0312/0412 VRB03KT P6SM BKN100 WS010/17025KT
     FM031400 19010KT P6SM BKN100
     FM031800 19010G20KT P6SM SCT250
     FM040100 16005KT P6SM BKN250=

USA.gov is the U.S. government's official web portal to all federal, state and local government web resources and services.